KFXE/FXE METAR and TAF weather

Enter ICAO airport designator
Station Type Date Time Source
KFXE METAR 2019/05/25 14:53 UTC NOAA

KFXE 251453Z 07013G21KT 10SM SCT035 29/18 A3010 RMK AO2 SLP195 T02890183 51012


Station Type Date Time Source
KFXE Decoded METAR 2019/05/25 14:53 UTC NOAA

FORT LAUDERDALE EXECUTIVE, FL, United States (KFXE) 26-12N 080-11W 6M
May 25, 2019 - 10:53 AM EDT / 2019.05.25 1453 UTC
Wind: from the ENE (070 degrees) at 15 MPH (13 KT) gusting to 24 MPH (21 KT):0
Visibility: 10 mile(s):0
Sky conditions: partly cloudy
Temperature: 84.0 F (28.9 C)
Dew Point: 64.9 F (18.3 C)
Relative Humidity: 52%
Pressure (altimeter): 30.1 in. Hg (1019 hPa)
Pressure tendency: 0.04 inches (1.2 hPa) higher than three hours ago
ob: KFXE 251453Z 07013G21KT 10SM SCT035 29/18 A3010 RMK AO2 SLP195 T02890183 51012
cycle: 15

Station Type Date Time Source
KFXE TAF 2019/05/25 15:04 UTC NOAA

TAF
AMD KFXE 251502Z 2515/2612 07015G25KT P6SM SCT030 SCT050
FM260100 10011KT P6SM FEW030

Example: see airport list